»·PEaware :: N969DA KLAX-KSNA

N969DA :: KLAX-KSNA

FLIGHT INFORMATION

Flight Status: Arrived
Operator: Privately registered:
United States
More flights under this callsign
Pilot: Anonymous 20880 (20880)
Aircraft: Unknown
(DA62)
More flights by this aircraft type
Origin: KLAX Los Angeles Intl
United States
Destination: KSNA John Wayne-Orange Co
United States
More flights between these airports :: More routes between these airports
Route: +SLI8 SLI
File this flight plan on PilotEdge
Remarks: I6 rating
Altitude:
(Current/Filed)
4,000ft
Speed:
(Current/Filed)
140kts
Departed: 28-Dec-18 01:32 PM
Arrived: 28-Dec-18 02:09 PM
Distance/Time
Traveled:
31nm/0:36
Distance/Time
To Go:
Arrived

Flight Plot

Page will automatically refresh every two minutes.

Flight plan parsing failed; only flown route is shown


Map Options




Map Legend


Flown Route
Filed Route
Departure Airport
Arrival Airport
Navaid (VOR, NDB)
Fix

Horizontal Profiles

Position Reports

Time Latitude Longitude Heading Altitude Ground
Speed
28-Dec-18 12:56 33.933731 -118.394715 89 105ft 0kts
28-Dec-18 12:58 33.933731 -118.394715 89 105ft 0kts
28-Dec-18 12:59 33.933731 -118.394715 89 105ft 0kts
28-Dec-18 13:00 33.933731 -118.394715 89 105ft 0kts
28-Dec-18 13:01 33.933731 -118.394715 89 105ft 0kts
28-Dec-18 13:02 33.933731 -118.394715 89 105ft 0kts
28-Dec-18 13:03 33.933731 -118.394715 89 105ft 0kts
28-Dec-18 13:04 33.933731 -118.394715 89 105ft 0kts
28-Dec-18 13:05 33.933731 -118.394715 89 105ft 0kts
28-Dec-18 13:06 33.933731 -118.394715 89 105ft 0kts
28-Dec-18 13:07 33.933731 -118.394715 89 105ft 0kts
28-Dec-18 13:08 33.933731 -118.394715 89 105ft 0kts
28-Dec-18 13:09 33.933731 -118.394715 89 105ft 0kts
28-Dec-18 13:10 33.933731 -118.394715 89 105ft 0kts
28-Dec-18 13:11 33.933731 -118.394715 89 105ft 0kts
28-Dec-18 13:12 33.933731 -118.394715 89 105ft 0kts
28-Dec-18 13:13 33.933731 -118.394715 89 105ft 0kts
28-Dec-18 13:14 33.933731 -118.394715 89 105ft 0kts
28-Dec-18 13:15 33.933731 -118.394715 89 105ft 0kts
28-Dec-18 13:16 33.933731 -118.394715 89 105ft 0kts
28-Dec-18 13:17 33.933731 -118.394715 89 105ft 0kts
28-Dec-18 13:18 33.933731 -118.394715 89 105ft 0kts
28-Dec-18 13:18 33.933966 -118.394246 45 104ft 0kts
28-Dec-18 13:19 33.935312 -118.390895 79 102ft 21kts
28-Dec-18 13:21 33.936054 -118.383509 80 97ft 22kts
28-Dec-18 13:22 33.936164 -118.382981 48 96ft 0kts
28-Dec-18 13:22 33.936164 -118.382981 48 96ft 0kts
28-Dec-18 13:23 33.936164 -118.382981 48 96ft 0kts
28-Dec-18 13:24 33.936164 -118.382981 48 96ft 0kts
28-Dec-18 13:25 33.936164 -118.382981 48 96ft 0kts
28-Dec-18 13:26 33.936164 -118.382981 48 96ft 0kts
28-Dec-18 13:27 33.936164 -118.382981 48 96ft 0kts
28-Dec-18 13:28 33.936164 -118.382981 48 96ft 0kts
28-Dec-18 13:29 33.936164 -118.382981 48 96ft 0kts
28-Dec-18 13:30 33.936228 -118.382908 39 96ft 9kts
28-Dec-18 13:31 33.935978 -118.395645 265 300ft 93kts
28-Dec-18 13:32 33.931207 -118.434417 251 1181ft 134kts
28-Dec-18 13:33 33.901512 -118.461146 214 2179ft 134kts
28-Dec-18 13:34 33.868413 -118.478440 173 3174ft 134kts
28-Dec-18 13:35 33.830817 -118.472788 172 3995ft 148kts
28-Dec-18 13:36 33.786073 -118.463022 145 4008ft 172kts
28-Dec-18 13:37 33.747650 -118.428966 142 3995ft 165kts
28-Dec-18 13:38 33.711559 -118.397141 141 3999ft 158kts
28-Dec-18 13:39 33.675912 -118.366561 141 3999ft 157kts
28-Dec-18 13:40 33.659496 -118.321697 101 4000ft 150kts
28-Dec-18 13:41 33.664263 -118.276485 49 3999ft 144kts
28-Dec-18 13:42 33.686935 -118.236481 55 3996ft 146kts
28-Dec-18 13:43 33.708933 -118.195099 55 3995ft 148kts
28-Dec-18 13:44 33.731119 -118.153345 55 3993ft 149kts
28-Dec-18 13:45 33.753470 -118.111232 55 3991ft 149kts
28-Dec-18 13:46 33.775759 -118.069177 55 3990ft 149kts
28-Dec-18 13:47 33.795324 -118.025153 61 3991ft 149kts
28-Dec-18 13:48 33.813241 -117.980638 60 3992ft 147kts
28-Dec-18 13:49 33.830962 -117.936572 60 3992ft 146kts
28-Dec-18 13:50 33.848589 -117.892691 60 3992ft 145kts
28-Dec-18 13:51 33.866211 -117.848763 60 3992ft 145kts
28-Dec-18 13:52 33.883871 -117.804689 61 3976ft 147kts
28-Dec-18 13:53 33.901780 -117.759918 61 3951ft 149kts
28-Dec-18 13:54 33.919089 -117.716534 62 3920ft 130kts
28-Dec-18 13:55 33.947294 -117.694758 26 3887ft 121kts
28-Dec-18 13:56 33.976291 -117.682063 344 3432ft 126kts
28-Dec-18 13:57 33.984744 -117.721556 228 3438ft 155kts
28-Dec-18 13:58 33.944680 -117.719663 163 3432ft 153kts
28-Dec-18 13:59 33.904770 -117.720764 214 3425ft 151kts
28-Dec-18 14:00 33.868223 -117.746309 208 3439ft 153kts
28-Dec-18 14:01 33.830411 -117.770532 208 3131ft 153kts
28-Dec-18 14:02 33.793174 -117.794191 204 2414ft 152kts
28-Dec-18 14:03 33.756091 -117.817772 202 1741ft 153kts
28-Dec-18 14:04 33.720919 -117.846948 232 1453ft 152kts
28-Dec-18 14:05 33.689348 -117.880951 215 1710ft 155kts
28-Dec-18 14:06 33.657336 -117.901284 110 1039ft 91kts
28-Dec-18 14:07 33.659736 -117.879031 23 286ft 85kts
28-Dec-18 14:08 33.672303 -117.871950 299 60ft 13kts
28-Dec-18 14:09 33.672824 -117.873122 270 60ft 0kts
28-Dec-18 14:10 33.672824 -117.873123 270 60ft 0kts
28-Dec-18 14:11 33.672824 -117.873123 270 60ft 0kts
28-Dec-18 14:12 33.672824 -117.873123 270 60ft 0kts
28-Dec-18 14:13 33.672824 -117.873123 270 60ft 0kts
28-Dec-18 14:14 33.672824 -117.873123 270 60ft 0kts
28-Dec-18 14:15 33.672824 -117.873123 270 60ft 0kts
28-Dec-18 14:16 33.672824 -117.873123 270 60ft 0kts
28-Dec-18 14:17 33.672824 -117.873123 270 60ft 0kts
28-Dec-18 14:18 33.672824 -117.873123 270 60ft 0kts
28-Dec-18 14:19 33.672824 -117.873123 270 60ft 0kts
28-Dec-18 14:20 33.672824 -117.873123 270 60ft 0kts
28-Dec-18 14:21 33.672824 -117.873123 270 60ft 0kts
28-Dec-18 14:22 33.672824 -117.873123 270 60ft 0kts

Navigation Log

Ident Type
Flight plan parsing failed, navigation log unavailable